Time;durP1;ratioP1;P1;durP2;ratioP2;P2;SDS_P1;SDS_P2;PMS_P1;PMS_P2;Temp;Humidity;BMP_temperature;BMP_pressure;BME280_temperature;BME280_humidity;BME280_pressure;Samples;Min_cycle;Max_cycle;Signal;HPM_P1;HPM_P2
2022/10/21 00:01:23;;;;;;;0.50;0.50;;;;;;;12.01;60.25;96166.50;5132240;27;20423;-53
2022/10/21 00:03:51;;;;;;;0.40;0.30;;;;;;;11.98;60.09;96166.19;5132000;27;20791;-53
2022/10/21 00:06:21;;;;;;;0.40;0.20;;;;;;;11.50;59.62;96076.91;5132038;27;20433;-54
2022/10/21 00:08:49;;;;;;;0.50;0.40;;;;;;;12.00;60.55;96170.19;5132400;27;20440;-54
2022/10/21 00:11:18;;;;;;;0.40;0.20;;;;;;;11.99;59.98;96165.16;5132088;27;20527;-53
2022/10/21 00:13:46;;;;;;;0.40;0.37;;;;;;;11.89;60.25;96157.13;5132291;27;20431;-54
2022/10/21 00:16:17;;;;;;;0.40;0.30;;;;;;;11.77;60.80;96164.47;5132995;27;20437;-53
2022/10/21 00:18:47;;;;;;;0.40;0.30;;;;;;;11.91;60.63;96165.63;5134958;27;20430;-53
2022/10/21 00:21:18;;;;;;;0.93;0.30;;;;;;;11.94;60.23;96162.47;5135972;27;20765;-53
2022/10/21 00:23:48;;;;;;;0.40;0.30;;;;;;;11.88;60.87;96151.00;5135351;27;20437;-53
2022/10/21 00:26:18;;;;;;;0.60;0.57;;;;;;;11.81;60.79;96161.06;5135670;27;20415;-53
2022/10/21 00:28:46;;;;;;;0.50;0.37;;;;;;;11.77;61.00;96167.91;5135347;27;20434;-53
2022/10/21 00:31:16;;;;;;;0.40;0.30;;;;;;;11.80;60.51;96159.44;5135039;27;20425;-54
2022/10/21 00:33:44;;;;;;;0.40;0.20;;;;;;;11.83;60.90;96164.25;5135331;27;20440;-54
2022/10/21 00:36:14;;;;;;;0.60;0.60;;;;;;;11.92;60.45;96161.91;5135163;27;20913;-53
2022/10/21 00:38:44;;;;;;;0.60;0.50;;;;;;;11.03;63.41;96171.53;5134838;27;20453;-53
2022/10/21 00:41:14;;;;;;;0.40;0.20;;;;;;;11.19;63.40;96171.41;5134898;27;20433;-53
2022/10/21 00:44:00;;;;;;;0.40;0.30;;;;;;;11.03;64.76;96174.19;5135304;27;20446;-55
2022/10/21 00:46:35;;;;;;;1.00;0.73;;;;;;;10.91;65.46;96166.38;5134918;27;20437;-53
2022/10/21 00:49:08;;;;;;;0.93;0.93;;;;;;;10.68;66.68;96166.66;5134969;27;20417;-53
2022/10/21 00:51:37;;;;;;;0.70;0.70;;;;;;;11.05;65.60;96172.09;5134055;27;20428;-55
2022/10/21 00:54:06;;;;;;;0.50;0.40;;;;;;;11.32;64.52;96171.00;5134751;27;20930;-53
2022/10/21 00:56:37;;;;;;;0.50;0.50;;;;;;;10.86;66.01;96168.97;5134875;27;20434;-54
2022/10/21 00:59:06;;;;;;;0.40;0.30;;;;;;;10.81;65.21;96166.25;5135011;27;20421;-53
2022/10/21 01:01:34;;;;;;;0.40;0.40;;;;;;;11.11;64.08;96166.56;5134637;27;20925;-54
2022/10/21 01:04:04;;;;;;;0.50;0.50;;;;;;;11.35;63.97;96162.53;5134754;27;20432;-54
2022/10/21 01:06:34;;;;;;;0.40;0.30;;;;;;;11.27;64.06;96160.34;5135041;27;20429;-54
2022/10/21 01:09:05;;;;;;;2.73;0.30;;;;;;;11.26;63.90;96148.13;5134651;27;20440;-54
2022/10/21 01:11:41;;;;;;;0.80;0.80;;;;;;;11.26;63.93;96145.47;5134898;27;20431;-54
2022/10/21 01:14:32;;;;;;;1.47;0.37;;;;;;;11.66;63.22;96152.16;5134371;27;20433;-54
2022/10/21 01:17:13;;;;;;;1.13;1.13;;;;;;;11.74;62.84;96154.38;5134475;27;20491;-54
2022/10/21 01:20:39;;;;;;;0.50;0.30;;;;;;;11.68;61.90;96150.03;5134322;27;20446;-54
2022/10/21 01:23:42;;;;;;;0.40;0.20;;;;;;;11.38;63.09;96148.75;5134646;27;20798;-54
2022/10/21 01:26:49;;;;;;;0.40;0.20;;;;;;;11.39;62.84;96147.69;5134131;27;20468;-53
2022/10/21 01:29:35;;;;;;;21.53;0.50;;;;;;;11.63;62.05;96148.16;5102019;27;20562;-53
2022/10/21 01:32:09;;;;;;;0.60;0.60;;;;;;;11.68;61.58;96156.19;5134547;27;20432;-53
2022/10/21 01:34:44;;;;;;;0.70;0.53;;;;;;;11.48;62.27;96156.00;5134573;27;20421;-54
2022/10/21 01:37:17;;;;;;;0.40;0.30;;;;;;;11.23;63.04;96156.59;5134156;27;20480;-53
2022/10/21 01:39:52;;;;;;;0.43;0.30;;;;;;;11.34;63.17;96160.94;5134170;27;20417;-53
2022/10/21 01:42:29;;;;;;;0.40;0.30;;;;;;;11.39;62.70;96165.47;5134333;27;20441;-54
2022/10/21 01:45:03;;;;;;;0.40;0.40;;;;;;;11.35;62.51;96157.25;5133856;27;20819;-53
2022/10/21 01:47:36;;;;;;;0.40;0.30;;;;;;;11.29;62.97;96163.53;5133872;27;20437;-54
2022/10/21 01:50:10;;;;;;;0.40;0.30;;;;;;;11.33;62.42;96158.53;5133411;27;20441;-53
2022/10/21 01:52:41;;;;;;;0.33;0.23;;;;;;;11.41;62.67;96161.50;5133981;27;20422;-53
2022/10/21 01:55:15;;;;;;;0.90;0.90;;;;;;;11.36;62.80;96161.47;5133743;27;20420;-53
2022/10/21 01:57:49;;;;;;;0.83;0.83;;;;;;;11.16;62.79;96145.38;5133758;27;20478;-53
2022/10/21 02:00:18;;;;;;;0.40;0.20;;;;;;;11.23;63.08;96167.19;5133652;27;21080;-53
2022/10/21 02:02:49;;;;;;;0.40;0.30;;;;;;;10.80;64.12;96152.19;5133786;27;20430;-54
2022/10/21 02:05:20;;;;;;;0.50;0.40;;;;;;;9.93;68.50;96177.88;5133280;27;20430;-53
2022/10/21 02:07:49;;;;;;;0.90;0.90;;;;;;;9.27;72.97;96180.56;5133504;27;20431;-54
2022/10/21 02:10:19;;;;;;;0.50;0.30;;;;;;;9.57;73.95;96181.06;5133446;27;20922;-53
2022/10/21 02:12:51;;;;;;;0.40;0.30;;;;;;;9.15;75.11;96185.13;5133743;27;20432;-54
2022/10/21 02:15:23;;;;;;;2.67;0.50;;;;;;;9.94;71.28;96187.41;5133692;27;20446;-54
2022/10/21 02:17:57;;;;;;;0.53;0.53;;;;;;;10.23;68.57;96188.13;5133570;27;20472;-53
2022/10/21 02:20:29;;;;;;;0.40;0.27;;;;;;;10.08;68.88;96186.03;5133646;27;20432;-53
2022/10/21 02:22:58;;;;;;;0.50;0.40;;;;;;;10.60;69.11;96183.03;5133198;27;20437;-53
2022/10/21 02:25:31;;;;;;;0.70;0.70;;;;;;;9.71;70.53;96168.28;5132693;27;20473;-54
2022/10/21 02:28:00;;;;;;;0.50;0.50;;;;;;;10.13;68.90;96191.44;5133089;27;20435;-53
2022/10/21 02:30:37;;;;;;;0.70;0.40;;;;;;;10.74;68.93;96193.00;5133338;27;20426;-53
2022/10/21 02:33:11;;;;;;;0.40;0.40;;;;;;;10.30;68.08;96190.56;5133395;27;20449;-54
2022/10/21 02:35:46;;;;;;;1.03;0.70;;;;;;;9.82;70.41;96193.84;5132920;27;20929;-54
2022/10/21 02:38:22;;;;;;;1.37;1.33;;;;;;;10.07;69.07;96195.03;5132838;27;20466;-54
2022/10/21 02:40:54;;;;;;;1.87;1.77;;;;;;;10.13;68.48;96194.09;5133160;27;20428;-54
2022/10/21 02:43:28;;;;;;;1.23;1.23;;;;;;;9.70;69.30;96196.59;5132910;27;20419;-54
2022/10/21 02:46:00;;;;;;;1.13;1.03;;;;;;;9.92;72.47;96194.00;5132811;27;20437;-54
2022/10/21 02:48:32;;;;;;;1.03;1.03;;;;;;;10.08;69.15;96196.63;5133141;27;20425;-54
2022/10/21 02:51:02;;;;;;;1.83;1.73;;;;;;;10.06;68.99;96201.38;5132684;27;20434;-54
2022/10/21 02:53:31;;;;;;;3.13;0.70;;;;;;;10.30;68.56;96209.13;5132493;27;20496;-54
2022/10/21 02:55:59;;;;;;;2.13;2.00;;;;;;;10.59;68.18;96202.63;5133068;27;20429;-54
2022/10/21 02:58:28;;;;;;;1.23;0.60;;;;;;;10.43;67.53;96206.91;5132494;27;20475;-54
2022/10/21 03:00:56;;;;;;;0.77;0.60;;;;;;;10.42;67.45;96215.13;5132581;27;20805;-54
2022/10/21 03:03:25;;;;;;;0.63;0.63;;;;;;;10.40;66.87;96210.06;5132913;27;20426;-54
2022/10/21 03:05:54;;;;;;;0.60;0.60;;;;;;;10.25;67.75;96212.50;5132834;27;20930;-54
2022/10/21 03:08:23;;;;;;;0.60;0.60;;;;;;;10.27;68.26;96215.72;5133074;27;20442;-55
2022/10/21 03:10:51;;;;;;;0.50;0.50;;;;;;;10.60;67.76;96220.13;5132320;27;20810;-54
2022/10/21 03:13:21;;;;;;;0.83;0.83;;;;;;;10.59;65.57;96213.22;5132171;27;20802;-54
2022/10/21 03:15:49;;;;;;;0.43;0.30;;;;;;;10.52;65.83;96221.38;5132405;27;20914;-54
2022/10/21 03:18:18;;;;;;;0.40;0.40;;;;;;;10.52;65.89;96220.56;5132144;27;20476;-55
2022/10/21 03:20:49;;;;;;;0.40;0.30;;;;;;;10.34;66.74;96219.00;5132157;27;20422;-54
2022/10/21 03:23:19;;;;;;;0.40;0.30;;;;;;;10.39;66.46;96211.13;5131989;27;20433;-53
2022/10/21 03:25:48;;;;;;;0.87;0.87;;;;;;;10.47;66.40;96223.16;5131930;27;20822;-54
2022/10/21 03:28:16;;;;;;;0.50;0.50;;;;;;;10.10;66.21;96222.88;5132036;27;20438;-53
2022/10/21 03:30:44;;;;;;;0.67;0.67;;;;;;;9.84;67.72;96221.69;5132335;27;20432;-53
2022/10/21 03:33:13;;;;;;;0.40;0.30;;;;;;;9.67;67.40;96212.16;5132310;27;20426;-53
2022/10/21 03:35:41;;;;;;;0.60;0.43;;;;;;;9.64;68.24;96221.38;5131625;27;20414;-53
2022/10/21 03:38:09;;;;;;;1.07;0.57;;;;;;;9.72;68.08;96210.41;5131422;27;20470;-54
2022/10/21 03:40:39;;;;;;;0.40;0.30;;;;;;;9.46;68.04;96189.91;5132116;27;20448;-54
2022/10/21 03:43:07;;;;;;;0.67;0.60;;;;;;;9.62;68.35;96215.53;5132192;27;20937;-54
2022/10/21 03:45:35;;;;;;;0.80;0.33;;;;;;;9.52;69.34;96225.97;5132194;27;20422;-54
2022/10/21 03:48:04;;;;;;;0.67;0.67;;;;;;;9.45;69.07;96223.47;5132210;27;20437;-54
2022/10/21 03:50:32;;;;;;;0.73;0.33;;;;;;;9.33;69.96;96221.94;5131967;27;20437;-54
2022/10/21 03:53:00;;;;;;;0.70;0.67;;;;;;;9.39;70.43;96226.25;5135635;27;20430;-54
2022/10/21 03:55:42;;;;;;;0.40;0.40;;;;;;;9.38;69.66;96214.91;5135837;27;20546;-54
2022/10/21 03:58:10;;;;;;;0.40;0.30;;;;;;;9.39;70.98;96224.44;5135686;27;20441;-52
2022/10/21 04:00:38;;;;;;;0.40;0.30;;;;;;;9.46;69.97;96219.00;5135994;27;20926;-54
2022/10/21 04:03:07;;;;;;;0.63;0.47;;;;;;;9.33;69.80;96227.25;5135584;27;20433;-53
2022/10/21 04:05:35;;;;;;;0.43;0.37;;;;;;;9.39;70.22;96220.97;5136058;27;20754;-53
2022/10/21 04:08:03;;;;;;;1.13;0.40;;;;;;;9.37;70.19;96226.50;5135468;27;20471;-53
2022/10/21 04:10:32;;;;;;;0.40;0.33;;;;;;;9.35;70.41;96227.81;5135825;27;20450;-53
2022/10/21 04:13:01;;;;;;;0.70;0.70;;;;;;;9.19;71.26;96226.72;5135402;27;20934;-52
2022/10/21 04:15:30;;;;;;;0.40;0.30;;;;;;;8.81;74.19;96229.19;5135190;27;20426;-53
2022/10/21 04:17:58;;;;;;;0.40;0.30;;;;;;;9.06;73.73;96232.31;5135334;27;20433;-53
2022/10/21 04:20:26;;;;;;;0.43;0.40;;;;;;;9.10;72.86;96228.16;5135116;27;20465;-53
2022/10/21 04:22:54;;;;;;;2.30;0.60;;;;;;;9.09;72.50;96229.19;5135478;27;20430;-53
2022/10/21 04:25:23;;;;;;;0.40;0.30;;;;;;;9.22;71.84;96239.47;5134962;27;20477;-53
2022/10/21 04:27:51;;;;;;;0.40;0.27;;;;;;;9.01;72.87;96236.69;5135102;27;20461;-53
2022/10/21 04:30:21;;;;;;;1.50;0.60;;;;;;;9.11;72.89;96237.69;5135227;27;20434;-53
2022/10/21 04:32:50;;;;;;;0.50;0.33;;;;;;;8.32;77.17;96208.66;5134874;27;20421;-54
2022/10/21 04:35:19;;;;;;;0.50;0.30;;;;;;;8.32;80.73;96251.72;5134776;27;20422;-54
2022/10/21 04:37:47;;;;;;;0.67;0.67;;;;;;;7.83;84.49;96257.44;5135190;27;20414;-54
2022/10/21 04:40:15;;;;;;;3.13;1.63;;;;;;;7.79;87.63;96251.03;5134659;27;20469;-54
2022/10/21 04:42:47;;;;;;;1.77;0.50;;;;;;;7.68;90.96;96258.72;5134519;27;20434;-53
2022/10/21 04:45:16;;;;;;;1.23;1.13;;;;;;;7.95;88.24;96247.69;5134581;27;20445;-54
2022/10/21 04:47:46;;;;;;;2.77;2.63;;;;;;;7.81;88.06;96267.44;5134499;27;20441;-54
2022/10/21 04:50:14;;;;;;;0.83;0.83;;;;;;;7.89;88.75;96265.28;5134562;27;20425;-54
2022/10/21 04:52:43;;;;;;;2.97;0.60;;;;;;;8.13;85.18;96264.22;5134424;27;20426;-54
2022/10/21 04:55:11;;;;;;;0.80;0.80;;;;;;;7.83;87.71;96266.16;5134529;27;20432;-54
2022/10/21 04:57:40;;;;;;;1.50;1.40;;;;;;;7.78;92.60;96268.69;5134407;27;20918;-54
2022/10/21 05:00:09;;;;;;;0.60;0.40;;;;;;;8.03;88.41;96276.38;5134439;27;20473;-53
2022/10/21 05:02:38;;;;;;;0.70;0.70;;;;;;;8.08;85.74;96255.38;5133296;27;20430;-53
2022/10/21 05:05:09;;;;;;;2.30;0.63;;;;;;;8.03;87.53;96276.38;5134016;27;20438;-53
2022/10/21 05:07:37;;;;;;;1.33;1.33;;;;;;;8.42;84.87;96278.38;5134395;27;20422;-52
2022/10/21 05:10:06;;;;;;;3.00;0.60;;;;;;;8.42;83.43;96272.28;5134193;27;20426;-53
2022/10/21 05:12:34;;;;;;;0.40;0.40;;;;;;;8.41;83.37;96276.75;5134564;27;20883;-54
2022/10/21 05:15:08;;;;;;;2.00;1.53;;;;;;;8.43;83.69;96279.97;5134477;27;20922;-53
2022/10/21 05:17:37;;;;;;;7.10;1.07;;;;;;;8.13;85.24;96253.66;5134035;27;20440;-53
2022/10/21 05:20:06;;;;;;;0.77;0.77;;;;;;;8.43;83.09;96279.97;5133908;27;20477;-53
2022/10/21 05:22:36;;;;;;;5.87;1.10;;;;;;;8.63;81.15;96290.94;5133938;27;20446;-53
2022/10/21 05:25:05;;;;;;;1.20;1.10;;;;;;;8.68;80.43;96293.69;5133867;27;20477;-53
2022/10/21 05:27:34;;;;;;;8.03;0.97;;;;;;;8.79;79.36;96290.22;5133765;27;20426;-53
2022/10/21 05:30:03;;;;;;;1.10;1.00;;;;;;;9.14;77.77;96287.47;5133824;27;20431;-53
2022/10/21 05:32:31;;;;;;;1.90;1.80;;;;;;;8.87;77.49;96289.06;5133961;27;20905;-53
2022/10/21 05:34:59;;;;;;;3.60;1.10;;;;;;;9.02;80.46;96293.84;5133761;27;20766;-53
2022/10/21 05:37:27;;;;;;;1.10;0.53;;;;;;;9.62;77.03;96300.22;5133599;27;20912;-54
2022/10/21 05:39:57;;;;;;;0.60;0.60;;;;;;;9.75;76.79;96292.00;5133568;27;20476;-53
2022/10/21 05:42:25;;;;;;;0.73;0.73;;;;;;;9.90;73.95;96239.28;5133752;27;20425;-53
2022/10/21 05:44:54;;;;;;;2.20;2.10;;;;;;;10.60;73.15;96307.63;5133374;27;20441;-52
2022/10/21 05:47:22;;;;;;;6.40;2.90;;;;;;;10.79;71.51;96285.06;5133503;27;20430;-53
2022/10/21 05:49:51;;;;;;;1.57;1.50;;;;;;;11.21;69.71;96307.28;5133618;27;20430;-53
2022/10/21 05:52:20;;;;;;;5.30;1.80;;;;;;;11.59;68.45;96310.88;5133381;27;20429;-54
2022/10/21 05:54:48;;;;;;;1.50;1.40;;;;;;;11.71;68.36;96319.53;5133224;27;20894;-55
2022/10/21 05:57:18;;;;;;;3.23;2.93;;;;;;;11.82;67.73;96314.03;5133606;27;20448;-54
2022/10/21 05:59:46;;;;;;;1.83;1.73;;;;;;;11.74;67.01;96311.84;5133055;27;20481;-54
2022/10/21 06:02:14;;;;;;;1.93;1.83;;;;;;;12.29;65.34;96326.66;5133126;27;20743;-55
2022/10/21 06:04:43;;;;;;;1.80;0.90;;;;;;;12.88;64.08;96322.75;5133278;27;20432;-55
2022/10/21 06:07:11;;;;;;;2.80;2.07;;;;;;;12.83;62.87;96316.59;5133396;27;20453;-55
2022/10/21 06:09:39;;;;;;;0.90;0.90;;;;;;;13.46;61.36;96324.34;5133153;27;20443;-55
2022/10/21 06:12:08;;;;;;;3.90;0.90;;;;;;;13.50;61.08;96324.63;5133007;27;20434;-57
2022/10/21 06:14:38;;;;;;;3.10;1.90;;;;;;;13.60;60.15;96328.13;5132854;27;20438;-57
2022/10/21 06:17:06;;;;;;;1.60;1.60;;;;;;;13.22;59.70;96325.88;5133355;27;20436;-57
2022/10/21 06:19:34;;;;;;;3.80;1.60;;;;;;;12.55;60.97;96331.06;5132271;27;20465;-58
2022/10/21 06:22:03;;;;;;;2.50;2.40;;;;;;;11.99;61.52;96264.25;5133328;27;20438;-57
2022/10/21 06:24:31;;;;;;;3.13;1.20;;;;;;;13.12;60.37;96326.63;5132645;27;20491;-58
2022/10/21 06:27:00;;;;;;;1.50;0.80;;;;;;;13.48;59.30;96324.09;5132754;27;20972;-57
2022/10/21 06:29:28;;;;;;;1.23;1.17;;;;;;;13.61;58.76;96324.38;5133053;27;20443;-57
2022/10/21 06:31:58;;;;;;;4.03;1.03;;;;;;;13.70;59.06;96335.31;5132657;27;20434;-56
2022/10/21 06:34:27;;;;;;;14.13;3.07;;;;;;;14.52;57.12;96335.13;5132860;27;20422;-56
2022/10/21 06:36:55;;;;;;;3.23;1.23;;;;;;;14.97;56.83;96320.88;5132720;27;20431;-56
2022/10/21 06:39:23;;;;;;;1.13;0.87;;;;;;;15.44;55.24;96333.75;5132635;27;20429;-57
2022/10/21 06:41:52;;;;;;;2.57;1.43;;;;;;;15.47;53.60;96277.94;5132339;27;20489;-57
2022/10/21 06:44:20;;;;;;;1.27;1.27;;;;;;;15.66;53.21;96315.53;5132962;27;20420;-58
2022/10/21 06:46:48;;;;;;;1.90;1.80;;;;;;;15.68;53.58;96326.72;5132811;27;20444;-58
2022/10/21 06:49:18;;;;;;;0.80;0.80;;;;;;;15.77;52.49;96320.50;5132596;27;20430;-57
2022/10/21 06:51:47;;;;;;;0.97;0.97;;;;;;;16.75;52.07;96322.13;5132681;27;20731;-58
2022/10/21 06:54:15;;;;;;;1.00;1.00;;;;;;;17.88;51.01;96316.75;5132536;27;20444;-56
2022/10/21 06:56:43;;;;;;;1.43;1.33;;;;;;;17.90;48.27;96321.81;5132373;27;20433;-55
2022/10/21 06:59:11;;;;;;;2.50;1.20;;;;;;;18.23;47.38;96320.75;5132499;27;20430;-55
2022/10/21 07:01:40;;;;;;;1.80;1.70;;;;;;;18.97;46.66;96304.44;5132612;27;20518;-54
2022/10/21 07:04:28;;;;;;;1.53;1.43;;;;;;;18.63;46.78;96312.06;5132127;27;20798;-54
2022/10/21 07:06:57;;;;;;;1.30;1.23;;;;;;;18.46;48.00;96314.47;5132732;27;20453;-54
2022/10/21 07:09:25;;;;;;;0.80;0.60;;;;;;;19.06;46.35;96317.19;5132668;27;20437;-54
2022/10/21 07:11:53;;;;;;;1.30;1.30;;;;;;;19.23;45.80;96310.09;5132190;27;20476;-53
2022/10/21 07:14:22;;;;;;;0.50;0.40;;;;;;;18.95;45.64;96316.56;5132046;27;20435;-53
2022/10/21 07:16:52;;;;;;;0.80;0.70;;;;;;;18.57;46.37;96312.47;5132391;27;20783;-53
2022/10/21 07:19:20;;;;;;;3.43;1.20;;;;;;;19.28;45.83;96311.88;5132317;27;20427;-53
2022/10/21 07:21:50;;;;;;;2.97;0.90;;;;;;;19.20;44.63;96304.56;5132220;27;20463;-54
2022/10/21 07:24:19;;;;;;;2.57;2.37;;;;;;;18.24;45.34;96315.09;5132236;27;20868;-53
2022/10/21 07:26:50;;;;;;;1.47;1.10;;;;;;;18.18;46.25;96308.22;5134101;27;20435;-53
2022/10/21 07:29:36;;;;;;;1.80;1.70;;;;;;;18.88;44.80;96303.53;5136415;27;20579;-54
2022/10/21 07:32:04;;;;;;;1.07;0.97;;;;;;;19.71;44.45;96298.94;5135807;27;20940;-55
2022/10/21 07:34:32;;;;;;;10.90;0.77;;;;;;;20.08;42.95;96294.03;5135993;27;20945;-53
2022/10/21 07:37:02;;;;;;;1.50;1.40;;;;;;;19.95;42.40;96302.94;5136382;27;20775;-53
2022/10/21 07:39:31;;;;;;;1.23;1.23;;;;;;;20.38;42.04;96297.91;5136386;27;20786;-54
2022/10/21 07:41:59;;;;;;;2.83;1.10;;;;;;;20.48;42.80;96286.06;5135938;27;20491;-54
2022/10/21 07:44:27;;;;;;;1.63;1.53;;;;;;;19.71;43.03;96296.25;5136118;27;20927;-54
2022/10/21 07:46:56;;;;;;;0.60;0.53;;;;;;;20.31;42.33;96294.03;5136007;27;20880;-53
2022/10/21 07:49:24;;;;;;;0.60;0.60;;;;;;;19.24;43.14;96216.84;5135753;27;20997;-54
2022/10/21 07:51:56;;;;;;;2.03;1.57;;;;;;;19.63;43.03;96298.53;5135313;27;20432;-53
2022/10/21 07:54:26;;;;;;;2.20;1.07;;;;;;;20.07;42.45;96295.13;5134765;27;20431;-53
2022/10/21 07:56:54;;;;;;;1.73;1.50;;;;;;;20.09;42.77;96294.78;5133947;27;20445;-53
2022/10/21 07:59:23;;;;;;;1.27;0.80;;;;;;;19.38;41.98;96177.31;5134255;27;20966;-52
2022/10/21 08:01:51;;;;;;;0.80;0.60;;;;;;;20.69;40.93;96277.16;5134516;27;20466;-52
2022/10/21 08:04:23;;;;;;;1.33;0.70;;;;;;;21.10;42.23;96287.66;5134943;27;20427;-52
2022/10/21 08:06:52;;;;;;;3.17;2.53;;;;;;;20.93;40.65;96292.94;5135071;27;20501;-51
2022/10/21 08:09:20;;;;;;;1.33;1.20;;;;;;;21.35;40.88;96284.22;5135061;27;20926;-51
2022/10/21 08:11:50;;;;;;;1.27;1.17;;;;;;;20.04;41.87;96290.34;5134715;27;20421;-51
2022/10/21 08:14:18;;;;;;;0.50;0.50;;;;;;;21.23;40.01;96283.25;5135136;27;20448;-50
2022/10/21 08:16:51;;;;;;;0.53;0.53;;;;;;;21.65;39.83;96217.81;5135090;27;20430;-51
2022/10/21 08:19:24;;;;;;;1.07;0.77;;;;;;;21.11;39.77;96283.88;5135012;27;20470;-51
2022/10/21 08:21:53;;;;;;;3.70;1.40;;;;;;;21.33;40.70;96281.06;5135189;27;20463;-51
2022/10/21 08:24:22;;;;;;;1.13;1.07;;;;;;;22.34;38.29;96277.97;5134464;27;20478;-51
2022/10/21 08:26:52;;;;;;;2.00;0.60;;;;;;;22.89;37.89;96269.09;5135492;27;20431;-51
2022/10/21 08:29:20;;;;;;;0.67;0.67;;;;;;;23.15;36.53;96242.72;5135390;27;20450;-52
2022/10/21 08:31:48;;;;;;;0.70;0.70;;;;;;;21.84;38.44;96274.94;5135176;27;20879;-51
2022/10/21 08:34:17;;;;;;;1.40;0.80;;;;;;;23.44;36.81;96277.94;5135103;27;20458;-50
2022/10/21 08:36:45;;;;;;;0.40;0.30;;;;;;;24.21;35.74;96269.25;5135150;27;20423;-50
2022/10/21 08:39:13;;;;;;;0.60;0.53;;;;;;;22.96;37.66;96269.41;5134958;27;20415;-50
2022/10/21 08:42:06;;;;;;;1.07;1.00;;;;;;;21.36;39.94;96263.47;5134963;27;20488;-51
2022/10/21 08:44:46;;;;;;;1.33;1.20;;;;;;;21.17;39.56;96277.22;5134831;27;20427;-51
2022/10/21 08:47:24;;;;;;;5.13;1.13;;;;;;;22.27;39.08;96272.25;5134920;27;20419;-51
2022/10/21 08:50:00;;;;;;;0.80;0.80;;;;;;;22.68;38.54;96250.09;5135020;27;20430;-51
2022/10/21 08:52:39;;;;;;;9.93;2.23;;;;;;;23.03;37.88;96267.78;5134883;27;20415;-51
2022/10/21 08:55:14;;;;;;;1.83;1.73;;;;;;;23.15;37.66;96262.44;5134620;27;20443;-52
2022/10/21 08:57:45;;;;;;;2.40;2.20;;;;;;;22.46;37.62;96264.59;5134633;27;20434;-51
2022/10/21 09:00:19;;;;;;;1.70;1.60;;;;;;;22.45;42.53;96216.28;5134739;27;20427;-55
2022/10/21 09:03:01;;;;;;;3.17;1.67;;;;;;;23.43;38.02;96256.63;5133269;27;20470;-58
2022/10/21 09:06:03;;;;;;;1.13;0.57;;;;;;;23.70;39.50;96248.00;5134419;27;20453;-58
2022/10/21 09:08:38;;;;;;;0.93;0.93;;;;;;;24.84;35.32;96251.72;5134460;27;20434;-58
2022/10/21 09:11:19;;;;;;;2.40;2.30;;;;;;;23.18;37.88;96255.59;5134512;27;21053;-55
2022/10/21 09:14:05;;;;;;;3.47;1.87;;;;;;;24.58;36.81;96248.47;5133840;27;20965;-56
2022/10/21 09:16:42;;;;;;;1.50;1.40;;;;;;;24.28;38.86;96241.63;5132263;27;20419;-57
2022/10/21 09:19:19;;;;;;;3.90;0.83;;;;;;;23.44;37.99;96245.47;5133810;27;20921;-58
2022/10/21 09:22:05;;;;;;;2.57;0.70;;;;;;;24.05;36.29;96241.16;5134174;27;20985;-51
2022/10/21 09:24:59;;;;;;;0.70;0.70;;;;;;;24.84;35.18;96234.66;5133790;27;20470;-52
2022/10/21 09:27:27;;;;;;;1.33;0.77;;;;;;;24.53;36.10;96233.22;5133750;27;20743;-52
2022/10/21 09:30:20;;;;;;;0.70;0.70;;;;;;;25.52;33.49;96219.41;5133829;27;20974;-52
2022/10/21 09:33:16;;;;;;;0.50;0.50;;;;;;;26.19;33.02;96208.56;5134068;27;20914;-52
2022/10/21 09:35:48;;;;;;;1.93;0.57;;;;;;;27.62;32.10;96209.00;5133955;27;20423;-52
2022/10/21 09:38:21;;;;;;;0.97;0.87;;;;;;;27.90;30.66;96206.09;5133857;27;20907;-52
2022/10/21 09:40:57;;;;;;;0.93;0.83;;;;;;;26.82;31.92;96209.44;5134073;27;20427;-51
2022/10/21 09:43:27;;;;;;;2.10;1.87;;;;;;;24.83;33.50;96206.75;5133447;27;20942;-52
2022/10/21 09:45:57;;;;;;;0.70;0.63;;;;;;;25.40;33.97;96205.81;5133802;27;20957;-53
2022/10/21 09:48:31;;;;;;;0.50;0.40;;;;;;;26.24;33.66;96207.50;5133332;27;20911;-51
2022/10/21 09:51:22;;;;;;;1.63;1.30;;;;;;;27.23;32.42;96199.13;5132937;27;20507;-52
2022/10/21 09:53:54;;;;;;;1.30;1.30;;;;;;;27.25;33.11;96205.78;5133606;27;20922;-52
2022/10/21 09:56:25;;;;;;;1.10;0.80;;;;;;;26.67;32.80;96195.81;5133282;27;20438;-52
2022/10/21 09:59:05;;;;;;;1.30;1.20;;;;;;;24.59;35.24;96195.88;5133203;27;20438;-51
2022/10/21 10:01:38;;;;;;;0.70;0.70;;;;;;;25.08;33.89;96178.50;5133313;27;20469;-53
2022/10/21 10:04:13;;;;;;;1.00;0.90;;;;;;;24.99;35.12;96194.09;5133232;27;20518;-54
2022/10/21 10:06:44;;;;;;;0.50;0.50;;;;;;;26.41;33.73;96186.22;5132967;27;20422;-53
2022/10/21 10:09:17;;;;;;;1.43;0.60;;;;;;;27.34;32.59;96173.75;5133247;27;20923;-54
2022/10/21 10:11:52;;;;;;;1.10;1.00;;;;;;;27.34;32.66;96172.94;5133204;27;20442;-54
2022/10/21 10:14:32;;;;;;;1.33;1.30;;;;;;;26.83;32.91;96177.59;5133363;27;20854;-54
2022/10/21 10:17:27;;;;;;;0.80;0.70;;;;;;;27.58;31.95;96157.16;5133038;27;20427;-53
2022/10/21 10:20:14;;;;;;;0.50;0.50;;;;;;;25.89;33.61;96171.97;5132922;27;20432;-53
2022/10/21 10:22:44;;;;;;;1.10;0.60;;;;;;;26.38;34.54;96157.03;5132781;27;20485;-53
2022/10/21 10:25:22;;;;;;;1.43;1.43;;;;;;;27.36;32.41;96151.59;5132646;27;20475;-52
2022/10/21 10:27:53;;;;;;;0.63;0.60;;;;;;;24.86;35.66;96141.00;5132845;27;20418;-52
2022/10/21 10:30:23;;;;;;;1.83;1.27;;;;;;;26.34;33.92;96136.31;5132159;27;20529;-53
2022/10/21 10:32:55;;;;;;;0.80;0.80;;;;;;;26.34;33.84;96131.69;5132650;27;20793;-53
2022/10/21 10:35:30;;;;;;;0.67;0.67;;;;;;;27.48;32.38;96129.72;5132752;27;20930;-53
2022/10/21 10:38:01;;;;;;;1.13;1.03;;;;;;;26.45;33.21;96126.50;5132694;27;20434;-53
2022/10/21 10:40:33;;;;;;;0.87;0.87;;;;;;;27.06;32.30;96116.75;5132980;27;20454;-52
2022/10/21 10:43:06;;;;;;;0.63;0.63;;;;;;;27.05;32.06;96114.34;5132521;27;20808;-52
2022/10/21 10:45:35;;;;;;;1.27;1.00;;;;;;;28.65;30.29;96108.19;5132487;27;20864;-53
2022/10/21 10:48:06;;;;;;;0.70;0.40;;;;;;;29.77;29.81;96100.78;5132442;27;20456;-53
2022/10/21 10:50:45;;;;;;;0.50;0.40;;;;;;;30.70;28.16;96092.34;5132648;27;20433;-53
2022/10/21 10:53:30;;;;;;;0.40;0.40;;;;;;;30.95;28.75;96093.34;5132280;27;20438;-52
2022/10/21 10:56:13;;;;;;;0.60;0.60;;;;;;;29.89;29.15;96089.63;5132446;27;20437;-52
2022/10/21 10:58:47;;;;;;;0.60;0.60;;;;;;;29.21;29.84;96078.22;5132627;27;20438;-52
2022/10/21 11:01:25;;;;;;;0.60;0.60;;;;;;;28.87;30.44;96089.03;5132477;27;20433;-53
2022/10/21 11:04:01;;;;;;;0.90;0.90;;;;;;;28.44;30.82;96089.50;5132237;27;20557;-53
2022/10/21 11:06:36;;;;;;;1.23;1.13;;;;;;;28.99;30.12;96088.06;5132370;27;20434;-52
2022/10/21 11:09:07;;;;;;;0.40;0.30;;;;;;;29.81;29.29;96077.03;5131673;27;20437;-53
2022/10/21 11:11:40;;;;;;;0.50;0.50;;;;;;;28.56;29.72;96075.69;5132397;27;20510;-52
2022/10/21 11:14:13;;;;;;;0.93;0.93;;;;;;;27.84;30.78;96077.50;5132028;27;20442;-53
2022/10/21 11:17:00;;;;;;;0.70;0.70;;;;;;;29.19;29.63;96066.88;5132489;27;20418;-53
2022/10/21 11:19:40;;;;;;;0.80;0.80;;;;;;;28.74;30.08;96068.56;5132632;27;20422;-53
2022/10/21 11:22:26;;;;;;;9.13;0.73;;;;;;;29.38;29.99;96053.09;5132352;27;20906;-53
2022/10/21 11:24:58;;;;;;;1.97;0.60;;;;;;;29.58;29.20;96060.75;5132084;27;20470;-54
2022/10/21 11:27:47;;;;;;;0.67;0.67;;;;;;;28.22;30.51;96054.84;5132441;27;20465;-53
2022/10/21 11:30:19;;;;;;;1.33;1.23;;;;;;;28.54;30.18;96058.13;5132188;27;20433;-54
2022/10/21 11:33:07;;;;;;;0.70;0.60;;;;;;;28.92;30.10;96061.44;5131703;27;20441;-52
2022/10/21 11:35:50;;;;;;;3.00;0.63;;;;;;;29.73;29.81;96050.00;5132076;27;20462;-53
2022/10/21 11:38:37;;;;;;;1.57;1.10;;;;;;;28.53;31.57;96035.50;5131909;27;20466;-53
2022/10/21 11:41:20;;;;;;;0.63;0.60;;;;;;;27.67;31.47;96032.47;5131971;27;20442;-52
2022/10/21 11:44:06;;;;;;;1.20;0.70;;;;;;;29.07;30.60;96039.81;5132020;27;20509;-53
2022/10/21 11:46:43;;;;;;;1.00;1.00;;;;;;;29.28;30.24;96037.34;5132183;27;20506;-52
2022/10/21 11:49:27;;;;;;;0.60;0.60;;;;;;;29.53;30.24;96030.25;5132495;28;20433;-53
2022/10/21 11:52:08;;;;;;;0.67;0.67;;;;;;;30.78;29.45;96031.03;5132005;27;20753;-53
2022/10/21 11:55:08;;;;;;;1.23;0.97;;;;;;;29.96;29.47;96023.28;5132272;27;20426;-53
2022/10/21 11:57:46;;;;;;;0.70;0.60;;;;;;;30.92;29.04;96003.75;5127548;27;20887;-53
2022/10/21 12:00:18;;;;;;;0.80;0.70;;;;;;;30.87;27.99;96017.78;5132041;27;21103;-54